createdAt,value
2023-03-18T00:01:33.744Z,13.50
2023-03-18T00:05:15.883Z,15.70
2023-03-18T00:08:51.292Z,13.70
2023-03-18T00:15:23.692Z,13.20
2023-03-18T00:17:56.304Z,16.90
2023-03-18T00:20:39.199Z,13.00
2023-03-18T00:23:13.476Z,14.40
2023-03-18T00:25:48.963Z,14.70
2023-03-18T00:28:22.080Z,15.20
2023-03-18T00:30:57.850Z,17.50
2023-03-18T00:33:34.523Z,14.10
2023-03-18T00:36:10.683Z,13.70
2023-03-18T00:38:44.300Z,15.50
2023-03-18T00:43:53.074Z,15.50
2023-03-18T00:46:29.903Z,17.90
2023-03-18T00:49:05.749Z,17.60
2023-03-18T00:51:42.392Z,18.50
2023-03-18T00:54:18.734Z,12.30
2023-03-18T00:56:59.983Z,15.00
2023-03-18T00:59:33.668Z,16.50
2023-03-18T01:03:08.486Z,15.50
2023-03-18T01:06:42.338Z,17.70
2023-03-18T01:10:18.252Z,16.90
2023-03-18T01:13:52.293Z,14.20
2023-03-18T01:18:57.675Z,17.80
2023-03-18T01:21:41.934Z,14.80
2023-03-18T01:24:16.634Z,12.00
2023-03-18T01:26:51.339Z,11.60
2023-03-18T01:29:24.241Z,14.60
2023-03-18T01:34:35.926Z,16.90
2023-03-18T01:36:54.304Z,12.30
2023-03-18T01:43:56.685Z,13.20
2023-03-18T01:46:40.449Z,12.60
2023-03-18T01:51:53.011Z,20.30
2023-03-18T01:54:27.664Z,14.60
2023-03-18T01:57:01.351Z,15.10
2023-03-18T01:59:39.218Z,12.70
2023-03-18T02:02:13.787Z,15.80
2023-03-18T02:04:52.047Z,15.70
2023-03-18T02:07:28.469Z,15.40
2023-03-18T02:10:05.660Z,15.70
2023-03-18T02:12:41.708Z,14.70
2023-03-18T02:15:25.684Z,10.20
2023-03-18T02:18:07.171Z,14.30
2023-03-18T02:21:00.274Z,14.00
2023-03-18T02:23:55.252Z,11.60
2023-03-18T02:26:34.930Z,14.20
2023-03-18T02:29:10.481Z,13.70
2023-03-18T02:32:45.187Z,11.90
2023-03-18T02:43:29.402Z,12.10
2023-03-18T02:46:38.010Z,15.50
2023-03-18T02:49:18.101Z,12.40
2023-03-18T02:51:53.584Z,14.10
2023-03-18T02:54:31.829Z,10.70
2023-03-18T02:57:04.698Z,10.50
2023-03-18T02:59:40.435Z,12.00
2023-03-18T03:03:17.211Z,11.70
2023-03-18T03:06:52.826Z,10.80
2023-03-18T03:10:28.946Z,13.40
2023-03-18T03:14:04.789Z,9.10
2023-03-18T03:16:38.834Z,10.50
2023-03-18T03:19:11.995Z,12.90
2023-03-18T03:21:45.336Z,13.10
2023-03-18T03:24:18.596Z,12.80
2023-03-18T03:26:55.962Z,12.60
2023-03-18T03:29:29.846Z,11.40
2023-03-18T03:33:03.779Z,13.30
2023-03-18T03:36:43.570Z,11.60
2023-03-18T03:43:44.046Z,11.10
2023-03-18T03:46:17.247Z,12.70
2023-03-18T03:48:51.089Z,10.60
2023-03-18T03:51:24.446Z,11.60
2023-03-18T03:56:28.986Z,13.10
2023-03-18T03:59:02.930Z,12.00
2023-03-18T04:01:50.196Z,11.10
2023-03-18T04:06:57.009Z,11.90
2023-03-18T04:09:30.919Z,13.80
2023-03-18T04:12:04.441Z,8.80
2023-03-18T04:14:37.856Z,11.10
2023-03-18T04:18:12.402Z,8.40
2023-03-18T04:29:43.959Z,10.40
2023-03-18T04:32:17.959Z,10.90
2023-03-18T04:34:52.425Z,11.10
2023-03-18T04:37:27.143Z,10.10
2023-03-18T04:40:02.274Z,12.40
2023-03-18T04:42:35.701Z,16.00
2023-03-18T04:45:10.891Z,16.80
2023-03-18T04:48:49.374Z,12.70
2023-03-18T04:52:24.930Z,11.40
2023-03-18T04:59:25.551Z,9.70
2023-03-18T05:01:59.991Z,12.30
2023-03-18T05:04:34.553Z,13.20
2023-03-18T05:07:07.633Z,10.30
2023-03-18T05:09:44.192Z,9.00
2023-03-18T05:12:18.701Z,10.90
2023-03-18T05:14:54.022Z,12.30
2023-03-18T05:17:27.820Z,10.50
2023-03-18T05:20:05.252Z,9.80
2023-03-18T05:22:38.992Z,10.60
2023-03-18T05:25:19.842Z,10.80
2023-03-18T05:27:54.803Z,13.70
2023-03-18T05:30:41.741Z,10.60
2023-03-18T05:34:15.446Z,10.80
2023-03-18T05:41:37.679Z,8.30
2023-03-18T05:45:08.007Z,12.60
2023-03-18T05:47:45.556Z,11.80
2023-03-18T05:50:29.336Z,13.70
2023-03-18T05:53:02.550Z,10.80
2023-03-18T05:55:40.561Z,13.60
2023-03-18T05:58:15.278Z,9.00
2023-03-18T06:00:49.940Z,11.50
2023-03-18T06:03:25.455Z,9.70
2023-03-18T06:05:58.263Z,10.60
2023-03-18T06:08:33.201Z,11.80
2023-03-18T06:11:06.233Z,12.30
2023-03-18T06:13:47.545Z,11.00
2023-03-18T06:17:21.372Z,9.10
2023-03-18T06:21:07.362Z,12.40
2023-03-18T06:27:50.013Z,9.90
2023-03-18T06:31:11.156Z,10.90
2023-03-18T06:33:46.914Z,13.10
2023-03-18T06:36:24.504Z,12.50
2023-03-18T06:39:02.127Z,11.90
2023-03-18T06:41:35.942Z,11.50
2023-03-18T06:44:31.340Z,11.50
2023-03-18T06:48:07.812Z,12.60
2023-03-18T06:51:44.170Z,11.60
2023-03-18T06:55:19.379Z,9.50
2023-03-18T06:59:22.135Z,10.20
2023-03-18T07:02:00.555Z,9.10
2023-03-18T07:04:36.023Z,11.00
2023-03-18T07:07:10.762Z,12.40
2023-03-18T07:12:16.824Z,11.00
2023-03-18T07:14:50.661Z,12.60
2023-03-18T07:18:24.759Z,12.50
2023-03-18T07:21:58.383Z,9.90
2023-03-18T07:25:35.903Z,9.60
2023-03-18T07:29:02.716Z,10.60
2023-03-18T07:31:37.572Z,11.80
2023-03-18T07:34:13.193Z,9.70
2023-03-18T07:36:47.577Z,10.30
2023-03-18T07:39:20.642Z,13.10
2023-03-18T07:41:54.034Z,12.10
2023-03-18T07:44:30.131Z,9.20
2023-03-18T07:48:03.808Z,10.40
2023-03-18T07:51:27.949Z,9.80
2023-03-18T07:59:18.510Z,10.40
2023-03-18T08:01:52.919Z,10.50
2023-03-18T08:06:58.231Z,10.40
2023-03-18T08:09:31.341Z,12.10
2023-03-18T08:12:06.904Z,12.00
2023-03-18T08:14:40.942Z,9.80
2023-03-18T08:17:14.361Z,11.40
2023-03-18T08:19:47.723Z,10.50
2023-03-18T08:22:21.513Z,11.30
2023-03-18T08:24:54.951Z,10.40
2023-03-18T08:27:31.569Z,11.40
2023-03-18T08:30:04.909Z,11.70
2023-03-18T08:32:40.405Z,8.70
2023-03-18T08:35:14.894Z,13.20
2023-03-18T08:37:49.393Z,10.00
2023-03-18T08:40:22.792Z,9.90
2023-03-18T08:42:55.815Z,11.70
2023-03-18T08:45:29.271Z,11.30
2023-03-18T08:49:02.845Z,12.30
2023-03-18T08:52:40.911Z,9.10
2023-03-18T09:06:04.172Z,9.90
2023-03-18T09:09:43.523Z,9.00
2023-03-18T09:13:18.370Z,11.20
2023-03-18T09:16:24.092Z,11.20
2023-03-18T09:18:57.825Z,11.40
2023-03-18T09:21:31.869Z,10.40
2023-03-18T09:24:07.378Z,10.00
2023-03-18T09:26:41.663Z,12.80
2023-03-18T09:29:16.366Z,11.20
2023-03-18T09:31:49.826Z,10.80
2023-03-18T09:34:23.356Z,11.10
2023-03-18T09:39:27.549Z,11.00
2023-03-18T09:42:20.649Z,11.40
2023-03-18T09:44:59.911Z,10.20
2023-03-18T09:48:01.365Z,11.30
2023-03-18T09:50:56.726Z,14.30
2023-03-18T09:53:41.849Z,13.80
2023-03-18T09:56:19.772Z,11.30
2023-03-18T09:59:09.028Z,13.30
2023-03-18T10:01:45.312Z,13.70
2023-03-18T10:04:23.379Z,12.80
2023-03-18T10:07:06.371Z,16.70
2023-03-18T10:09:46.999Z,12.00
2023-03-18T10:12:31.459Z,10.60
2023-03-18T10:15:16.877Z,9.70
2023-03-18T10:17:55.820Z,9.30
2023-03-18T10:20:36.201Z,9.90
2023-03-18T10:23:21.982Z,9.30
2023-03-18T10:25:57.643Z,10.10
2023-03-18T10:28:45.085Z,12.20
2023-03-18T10:31:33.990Z,10.80
2023-03-18T10:34:13.921Z,7.70
2023-03-18T10:36:57.667Z,11.60
2023-03-18T10:39:36.050Z,9.40
2023-03-18T10:42:23.233Z,9.10
2023-03-18T10:45:11.288Z,10.80
2023-03-18T10:48:50.254Z,12.60
2023-03-18T10:52:21.936Z,10.20
2023-03-18T10:56:05.297Z,9.70
2023-03-18T11:03:23.836Z,12.10
2023-03-18T11:07:00.574Z,13.50
2023-03-18T11:11:05.426Z,10.00
2023-03-18T11:14:43.454Z,12.10
2023-03-18T11:17:28.590Z,12.20
2023-03-18T11:20:22.287Z,11.10
2023-03-18T11:22:58.288Z,11.20
2023-03-18T11:25:31.734Z,9.70
2023-03-18T11:28:09.205Z,10.30
2023-03-18T11:30:50.284Z,13.10
2023-03-18T11:33:34.876Z,8.40
2023-03-18T11:36:16.425Z,10.70
2023-03-18T11:39:00.831Z,10.90
2023-03-18T11:41:33.832Z,11.10
2023-03-18T11:44:18.908Z,6.40
2023-03-18T11:47:52.543Z,9.90
2023-03-18T11:51:51.360Z,7.00
2023-03-18T12:09:01.073Z,8.60
2023-03-18T12:12:44.783Z,9.30
2023-03-18T12:16:24.378Z,8.80
2023-03-18T12:19:27.025Z,7.60
2023-03-18T12:22:14.384Z,11.30
2023-03-18T12:25:05.855Z,11.60
2023-03-18T12:27:50.680Z,9.30
2023-03-18T12:30:46.044Z,8.90
2023-03-18T12:33:40.915Z,11.00
2023-03-18T12:36:29.486Z,10.30
2023-03-18T12:39:16.607Z,10.60
2023-03-18T12:42:02.439Z,9.20
2023-03-18T12:45:01.998Z,11.00
2023-03-18T12:48:44.546Z,11.80
2023-03-18T12:52:30.726Z,12.30
2023-03-18T12:56:13.747Z,10.10
2023-03-18T12:59:53.253Z,8.90
2023-03-18T13:02:45.296Z,11.60
2023-03-18T13:05:42.081Z,11.70
2023-03-18T13:08:43.028Z,13.00
2023-03-18T13:11:31.337Z,9.50
2023-03-18T13:14:14.901Z,11.10
2023-03-18T13:16:50.734Z,13.90
2023-03-18T13:20:32.680Z,9.40
2023-03-18T13:24:36.737Z,11.10
2023-03-18T13:31:29.572Z,9.00
2023-03-18T13:34:40.828Z,9.60
2023-03-18T13:37:49.993Z,10.80
2023-03-18T13:40:52.903Z,11.10
2023-03-18T13:43:28.097Z,9.50
2023-03-18T13:46:03.315Z,9.70
2023-03-18T13:49:42.226Z,10.20
2023-03-18T13:53:00.277Z,7.10
2023-03-18T13:56:53.408Z,8.70
2023-03-18T14:00:34.922Z,8.90
2023-03-18T14:04:04.348Z,8.90
2023-03-18T14:07:26.586Z,9.30
2023-03-18T14:11:32.417Z,10.20
2023-03-18T14:15:19.288Z,9.40
2023-03-18T14:17:58.811Z,8.40
2023-03-18T14:20:42.581Z,8.50
2023-03-18T14:23:40.947Z,9.40
2023-03-18T14:26:22.705Z,9.90
2023-03-18T14:29:16.353Z,9.20
2023-03-18T14:35:35.959Z,8.50
2023-03-18T14:39:11.562Z,9.20
2023-03-18T14:42:35.112Z,18.80
2023-03-18T14:46:18.024Z,184.90
2023-03-18T14:49:43.971Z,35.30
2023-03-18T15:00:43.411Z,16.80
2023-03-18T15:04:24.170Z,8.30
2023-03-18T15:07:58.294Z,8.80
2023-03-18T15:15:45.250Z,7.20
2023-03-18T15:19:23.680Z,7.80
2023-03-18T15:23:29.202Z,9.30
2023-03-18T15:27:07.384Z,8.70
2023-03-18T15:30:36.313Z,8.80
2023-03-18T15:34:13.141Z,11.50
2023-03-18T15:37:42.832Z,8.60
2023-03-18T15:41:08.653Z,9.70
2023-03-18T15:44:31.267Z,10.50
2023-03-18T15:47:52.577Z,15.60
2023-03-18T15:50:34.878Z,13.60
2023-03-18T15:53:19.735Z,12.50
2023-03-18T15:55:55.852Z,10.00
2023-03-18T15:58:36.583Z,12.20
2023-03-18T16:01:16.087Z,10.10
2023-03-18T16:04:51.013Z,11.80
2023-03-18T16:08:14.749Z,8.70
2023-03-18T16:11:55.713Z,10.50
2023-03-18T16:15:25.088Z,9.20
2023-03-18T16:17:59.623Z,10.90
2023-03-18T16:20:33.973Z,11.40
2023-03-18T16:23:15.103Z,13.60
2023-03-18T16:25:51.733Z,13.40
2023-03-18T16:28:28.534Z,13.20
2023-03-18T16:31:02.264Z,12.50
2023-03-18T16:34:23.022Z,16.00
2023-03-18T16:37:49.308Z,13.80
2023-03-18T16:41:24.121Z,12.30
2023-03-18T16:47:47.300Z,13.60
2023-03-18T16:50:23.950Z,15.50
2023-03-18T16:52:57.342Z,15.60
2023-03-18T16:55:31.760Z,19.20
2023-03-18T16:58:05.633Z,18.00
2023-03-18T17:00:39.917Z,14.90
2023-03-18T17:04:10.344Z,19.20
2023-03-18T17:07:40.432Z,18.90
2023-03-18T17:11:19.982Z,15.90
2023-03-18T17:14:34.212Z,18.10
2023-03-18T17:17:59.024Z,21.40
2023-03-18T17:20:34.173Z,20.50
2023-03-18T17:23:07.402Z,19.70
2023-03-18T17:25:40.704Z,17.60
2023-03-18T17:28:21.122Z,20.20
2023-03-18T17:30:56.805Z,18.40
2023-03-18T17:37:41.371Z,20.40
2023-03-18T17:41:21.488Z,20.70
2023-03-18T17:44:43.772Z,18.60
2023-03-18T17:47:41.891Z,20.10
2023-03-18T17:50:19.965Z,22.70
2023-03-18T17:53:02.683Z,19.10
2023-03-18T17:55:43.484Z,23.40
2023-03-18T17:58:22.637Z,24.20
2023-03-18T18:01:02.201Z,23.00
2023-03-18T18:03:38.729Z,25.60
2023-03-18T18:06:13.926Z,22.90
2023-03-18T18:08:47.850Z,24.60
2023-03-18T18:11:24.314Z,24.20
2023-03-18T18:14:01.322Z,27.20
2023-03-18T18:16:36.564Z,23.50
2023-03-18T18:20:18.187Z,22.80
2023-03-18T18:23:51.766Z,23.30
2023-03-18T18:27:25.368Z,23.50
2023-03-18T18:31:00.544Z,23.90
2023-03-18T18:33:37.299Z,24.30
2023-03-18T18:36:13.707Z,25.70
2023-03-18T18:38:49.126Z,25.10
2023-03-18T18:41:23.946Z,23.70
2023-03-18T18:43:57.723Z,26.90
2023-03-18T18:46:32.260Z,25.70
2023-03-18T18:49:06.592Z,24.10
2023-03-18T18:51:41.872Z,30.20
2023-03-18T18:54:16.923Z,23.40
2023-03-18T18:56:51.113Z,26.80
2023-03-18T18:59:29.263Z,28.20
2023-03-18T19:02:04.071Z,31.20
2023-03-18T19:05:24.914Z,26.50
2023-03-18T19:08:52.434Z,31.90
2023-03-18T19:12:21.324Z,33.50
2023-03-18T19:15:54.552Z,29.40
2023-03-18T19:18:39.224Z,28.40
2023-03-18T19:21:13.627Z,25.60
2023-03-18T19:23:47.514Z,31.00
2023-03-18T19:26:21.824Z,26.70
2023-03-18T19:28:59.802Z,30.00
2023-03-18T19:31:36.350Z,32.70
2023-03-18T19:34:55.445Z,39.00
2023-03-18T19:38:30.780Z,43.90
2023-03-18T19:42:07.613Z,49.90
2023-03-18T19:48:41.720Z,30.30
2023-03-18T19:51:16.311Z,34.00
2023-03-18T19:53:50.367Z,34.30
2023-03-18T19:56:31.650Z,31.40
2023-03-18T19:59:04.542Z,29.10
2023-03-18T20:01:37.614Z,35.10
2023-03-18T20:09:02.531Z,29.60
2023-03-18T20:12:39.750Z,28.10
2023-03-18T20:16:17.035Z,26.40
2023-03-18T20:19:33.394Z,29.90
2023-03-18T20:22:48.545Z,27.30
2023-03-18T20:26:06.925Z,30.10
2023-03-18T20:33:10.385Z,29.20
2023-03-18T20:35:49.295Z,31.80
2023-03-18T20:38:30.673Z,36.70
2023-03-18T20:41:04.243Z,33.60
2023-03-18T20:43:39.935Z,32.70
2023-03-18T20:46:16.394Z,34.10
2023-03-18T20:49:45.843Z,35.40
2023-03-18T20:56:35.803Z,46.90
2023-03-18T20:59:49.025Z,54.90
2023-03-18T21:03:28.110Z,47.50
2023-03-18T21:06:04.459Z,44.50
2023-03-18T21:08:37.746Z,44.40
2023-03-18T21:11:22.038Z,45.50
2023-03-18T21:13:55.273Z,43.30
2023-03-18T21:16:29.668Z,39.80
2023-03-18T21:20:19.322Z,43.00
2023-03-18T21:24:04.147Z,41.80
2023-03-18T21:27:39.596Z,40.90
2023-03-18T21:31:25.672Z,38.40
2023-03-18T21:34:00.238Z,43.50
2023-03-18T21:36:33.302Z,42.10
2023-03-18T21:39:06.087Z,38.70
2023-03-18T21:41:39.890Z,33.30
2023-03-18T21:44:14.751Z,38.70
2023-03-18T21:46:47.552Z,35.90
2023-03-18T21:50:22.273Z,35.70
2023-03-18T21:53:49.300Z,34.00
2023-03-18T21:57:25.869Z,33.70
2023-03-18T22:00:29.640Z,33.70
2023-03-18T22:03:19.455Z,33.10
2023-03-18T22:08:25.823Z,31.70
2023-03-18T22:10:58.962Z,33.20
2023-03-18T22:13:33.836Z,35.40
2023-03-18T22:16:15.311Z,30.00
2023-03-18T22:18:49.026Z,32.90
2023-03-18T22:23:58.704Z,27.70
2023-03-18T22:26:31.906Z,30.50
2023-03-18T22:29:04.963Z,31.00
2023-03-18T22:31:38.964Z,30.70
2023-03-18T22:34:24.544Z,27.90
2023-03-18T22:36:57.537Z,29.10
2023-03-18T22:39:30.549Z,25.90
2023-03-18T22:42:03.636Z,27.90
2023-03-18T22:44:37.844Z,29.00
2023-03-18T22:47:15.892Z,31.50
2023-03-18T22:50:33.392Z,26.70
2023-03-18T22:53:55.805Z,27.90
2023-03-18T22:57:33.463Z,25.30
2023-03-18T23:01:12.192Z,29.20
2023-03-18T23:03:47.374Z,31.70
2023-03-18T23:06:24.216Z,28.80
2023-03-18T23:08:57.328Z,32.20
2023-03-18T23:11:30.897Z,29.50
2023-03-18T23:14:04.129Z,33.50
2023-03-18T23:16:38.838Z,32.40
2023-03-18T23:20:14.237Z,26.90
2023-03-18T23:23:49.440Z,29.50
2023-03-18T23:33:32.529Z,27.80
2023-03-18T23:36:05.418Z,26.70
2023-03-18T23:38:38.731Z,28.00
2023-03-18T23:41:12.009Z,31.40
2023-03-18T23:43:44.743Z,26.40
2023-03-18T23:46:29.403Z,30.50
2023-03-18T23:49:02.133Z,31.40
2023-03-18T23:51:35.358Z,30.20
2023-03-18T23:54:08.540Z,27.60
2023-03-18T23:56:41.471Z,27.20
2023-03-18T23:59:16.471Z,27.50
